createdAt,value
2023-03-02T00:01:46.794Z,12.63
2023-03-02T00:04:20.788Z,14.13
2023-03-02T00:06:49.660Z,14.30
2023-03-02T00:09:18.334Z,15.48
2023-03-02T00:11:47.829Z,15.43
2023-03-02T00:14:15.559Z,15.52
2023-03-02T00:16:43.350Z,17.75
2023-03-02T00:19:11.065Z,17.85
2023-03-02T00:21:38.824Z,17.30
2023-03-02T00:24:07.456Z,18.55
2023-03-02T00:26:35.442Z,19.80
2023-03-02T00:29:05.666Z,18.75
2023-03-02T00:31:33.504Z,20.80
2023-03-02T00:34:01.380Z,20.80
2023-03-02T00:36:29.089Z,21.67
2023-03-02T00:38:57.455Z,20.83
2023-03-02T00:41:25.229Z,21.52
2023-03-02T00:43:53.000Z,22.42
2023-03-02T00:46:24.876Z,23.65
2023-03-02T00:48:53.388Z,22.85
2023-03-02T00:51:21.462Z,23.05
2023-03-02T00:53:49.249Z,24.85
2023-03-02T00:56:16.991Z,24.38
2023-03-02T00:58:44.674Z,25.63
2023-03-02T01:01:15.896Z,25.35
2023-03-02T01:03:48.197Z,26.02
2023-03-02T01:06:17.332Z,27.95
2023-03-02T01:08:45.729Z,27.65
2023-03-02T01:11:15.065Z,26.80
2023-03-02T01:13:42.971Z,30.77
2023-03-02T01:16:11.837Z,30.75
2023-03-02T01:18:39.866Z,30.27
2023-03-02T01:21:12.011Z,30.52
2023-03-02T01:23:39.784Z,32.05
2023-03-02T01:26:08.213Z,31.35
2023-03-02T01:28:35.964Z,33.47
2023-03-02T01:31:04.670Z,33.10
2023-03-02T01:33:32.819Z,32.72
2023-03-02T01:36:00.887Z,33.63
2023-03-02T01:38:30.143Z,32.72
2023-03-02T01:40:57.972Z,34.17
2023-03-02T01:43:25.774Z,33.63
2023-03-02T01:45:58.170Z,34.25
2023-03-02T01:48:30.573Z,35.58
2023-03-02T01:50:59.435Z,35.05
2023-03-02T01:53:32.268Z,33.90
2023-03-02T01:56:01.388Z,36.50
2023-03-02T01:58:32.759Z,33.70
2023-03-02T02:01:01.673Z,34.40
2023-03-02T02:03:31.771Z,35.17
2023-03-02T02:06:10.434Z,33.55
2023-03-02T02:08:40.119Z,34.75
2023-03-02T02:11:08.359Z,34.35
2023-03-02T02:13:36.324Z,34.22
2023-03-02T02:16:04.922Z,36.40
2023-03-02T02:18:32.718Z,35.63
2023-03-02T02:21:00.588Z,34.60
2023-03-02T02:23:32.745Z,35.63
2023-03-02T02:26:08.693Z,34.03
2023-03-02T02:28:41.821Z,35.20
2023-03-02T02:31:15.618Z,33.90
2023-03-02T02:33:46.879Z,34.97
2023-03-02T02:36:19.633Z,35.45
2023-03-02T02:38:51.040Z,34.72
2023-03-02T02:41:22.913Z,36.05
2023-03-02T02:43:51.446Z,35.58
2023-03-02T02:46:19.543Z,34.17
2023-03-02T02:48:47.388Z,35.65
2023-03-02T02:51:30.598Z,36.72
2023-03-02T02:54:00.588Z,37.20
2023-03-02T02:56:34.582Z,35.67
2023-03-02T02:59:07.982Z,34.17
2023-03-02T03:01:37.505Z,36.33
2023-03-02T03:04:07.479Z,36.15
2023-03-02T03:06:42.467Z,36.17
2023-03-02T03:09:11.407Z,33.53
2023-03-02T03:11:44.449Z,35.03
2023-03-02T03:14:15.342Z,34.92
2023-03-02T03:16:45.818Z,32.25
2023-03-02T03:19:19.239Z,34.47
2023-03-02T03:21:50.519Z,33.53
2023-03-02T03:24:18.820Z,34.63
2023-03-02T03:26:47.999Z,35.38
2023-03-02T03:29:18.131Z,33.85
2023-03-02T03:31:45.883Z,34.05
2023-03-02T03:34:13.734Z,32.88
2023-03-02T03:36:43.259Z,33.63
2023-03-02T03:39:12.676Z,35.13
2023-03-02T03:41:40.899Z,32.83
2023-03-02T03:44:10.874Z,32.65
2023-03-02T03:46:38.994Z,31.92
2023-03-02T03:49:07.099Z,31.98
2023-03-02T03:51:35.301Z,33.53
2023-03-02T03:54:04.064Z,31.98
2023-03-02T03:56:34.640Z,32.65
2023-03-02T03:59:08.611Z,33.03
2023-03-02T04:01:40.120Z,33.50
2023-03-02T04:04:10.354Z,33.70
2023-03-02T04:06:38.574Z,32.08
2023-03-02T04:09:07.052Z,33.05
2023-03-02T04:11:36.718Z,32.53
2023-03-02T04:14:05.493Z,32.72
2023-03-02T04:16:34.038Z,33.53
2023-03-02T04:19:04.725Z,34.05
2023-03-02T04:21:32.482Z,32.42
2023-03-02T04:24:00.167Z,32.22
2023-03-02T04:26:27.968Z,33.13
2023-03-02T04:28:55.768Z,31.42
2023-03-02T04:31:23.650Z,31.38
2023-03-02T04:33:51.469Z,33.00
2023-03-02T04:36:20.725Z,33.08
2023-03-02T04:38:48.872Z,31.02
2023-03-02T04:41:17.388Z,32.50
2023-03-02T04:43:45.172Z,30.80
2023-03-02T04:46:15.849Z,31.17
2023-03-02T04:48:43.610Z,31.30
2023-03-02T04:51:18.280Z,31.48
2023-03-02T04:53:47.414Z,31.02
2023-03-02T04:56:15.123Z,31.17
2023-03-02T04:58:42.889Z,30.85
2023-03-02T05:01:11.274Z,30.70
2023-03-02T05:03:39.170Z,29.75
2023-03-02T05:06:07.424Z,28.67
2023-03-02T05:08:35.807Z,30.75
2023-03-02T05:11:06.385Z,29.42
2023-03-02T05:13:34.647Z,27.52
2023-03-02T05:16:02.706Z,28.83
2023-03-02T05:18:31.202Z,29.75
2023-03-02T05:20:59.069Z,29.80
2023-03-02T05:23:28.601Z,28.77
2023-03-02T05:25:57.661Z,29.25
2023-03-02T05:28:27.416Z,28.52
2023-03-02T05:30:55.484Z,27.92
2023-03-02T05:33:23.516Z,28.38
2023-03-02T05:35:51.317Z,29.05
2023-03-02T05:38:19.147Z,29.27
2023-03-02T05:40:47.364Z,28.45
2023-03-02T05:43:18.889Z,27.60
2023-03-02T05:45:48.459Z,28.80
2023-03-02T05:48:16.786Z,27.75
2023-03-02T05:50:44.824Z,27.80
2023-03-02T05:53:12.625Z,29.05
2023-03-02T05:55:40.387Z,27.17
2023-03-02T05:58:09.752Z,27.83
2023-03-02T06:00:37.508Z,26.85
2023-03-02T06:03:06.772Z,27.65
2023-03-02T06:05:35.198Z,28.08
2023-03-02T06:08:03.291Z,27.95
2023-03-02T06:10:31.247Z,27.13
2023-03-02T06:12:59.033Z,27.35
2023-03-02T06:15:29.788Z,28.50
2023-03-02T06:17:57.667Z,27.20
2023-03-02T06:20:26.965Z,27.98
2023-03-02T06:22:54.768Z,27.23
2023-03-02T06:25:24.792Z,26.13
2023-03-02T06:27:53.852Z,27.13
2023-03-02T06:30:24.746Z,25.52
2023-03-02T06:32:52.943Z,27.65
2023-03-02T06:35:21.243Z,28.17
2023-03-02T06:37:50.673Z,27.02
2023-03-02T06:40:18.869Z,26.70
2023-03-02T06:42:46.661Z,27.88
2023-03-02T06:45:14.588Z,27.35
2023-03-02T06:47:42.531Z,26.13
2023-03-02T06:50:11.946Z,28.10
2023-03-02T06:52:39.919Z,26.92
2023-03-02T06:55:09.992Z,28.17
2023-03-02T06:57:37.805Z,27.55
2023-03-02T07:00:09.984Z,28.67
2023-03-02T07:02:38.401Z,28.30
2023-03-02T07:05:07.756Z,27.50
2023-03-02T07:07:35.539Z,28.08
2023-03-02T07:10:03.429Z,27.30
2023-03-02T07:12:32.861Z,28.98
2023-03-02T07:15:00.608Z,27.67
2023-03-02T07:17:28.342Z,28.67
2023-03-02T07:19:56.109Z,28.75
2023-03-02T07:22:23.846Z,29.88
2023-03-02T07:24:51.580Z,29.45
2023-03-02T07:27:19.351Z,28.70
2023-03-02T07:29:48.459Z,30.15
2023-03-02T07:32:16.226Z,29.50
2023-03-02T07:34:44.006Z,30.10
2023-03-02T07:37:11.755Z,28.40
2023-03-02T07:39:39.504Z,29.90
2023-03-02T07:42:08.890Z,28.60
2023-03-02T07:44:36.704Z,28.77
2023-03-02T07:47:06.376Z,27.60
2023-03-02T07:49:35.349Z,29.27
2023-03-02T07:52:03.527Z,29.50
2023-03-02T07:54:31.513Z,29.70
2023-03-02T07:56:59.630Z,29.38
2023-03-02T07:59:30.220Z,29.70
2023-03-02T08:01:58.644Z,29.00
2023-03-02T08:04:28.066Z,28.65
2023-03-02T08:06:55.835Z,30.30
2023-03-02T08:09:23.651Z,27.23
2023-03-02T08:11:51.429Z,27.52
2023-03-02T08:14:19.224Z,27.83
2023-03-02T08:16:47.034Z,28.80
2023-03-02T08:19:14.844Z,26.63
2023-03-02T08:21:44.189Z,25.30
2023-03-02T08:24:12.515Z,25.92
2023-03-02T08:26:40.698Z,28.65
2023-03-02T08:29:08.609Z,26.08
2023-03-02T08:31:36.717Z,26.20
2023-03-02T08:34:04.918Z,27.42
2023-03-02T08:36:33.079Z,26.08
2023-03-02T08:39:02.450Z,25.48
2023-03-02T08:41:30.802Z,25.08
2023-03-02T08:43:58.917Z,24.38
2023-03-02T08:46:26.722Z,25.70
2023-03-02T08:48:54.720Z,24.55
2023-03-02T08:51:24.626Z,23.35
2023-03-02T08:53:55.182Z,22.08
2023-03-02T08:56:26.051Z,22.95
2023-03-02T08:58:55.406Z,22.65
2023-03-02T09:01:25.496Z,21.25
2023-03-02T09:03:53.692Z,22.63
2023-03-02T09:06:21.665Z,21.98
2023-03-02T09:08:49.937Z,22.05
2023-03-02T09:11:18.108Z,21.52
2023-03-02T09:13:47.242Z,22.45
2023-03-02T09:16:15.505Z,22.15
2023-03-02T09:18:43.344Z,20.60
2023-03-02T09:21:11.129Z,19.98
2023-03-02T09:23:38.953Z,18.75
2023-03-02T09:26:06.948Z,18.95
2023-03-02T09:28:36.050Z,19.88
2023-03-02T09:31:08.006Z,18.65
2023-03-02T09:33:36.017Z,20.30
2023-03-02T09:36:07.550Z,18.27
2023-03-02T09:38:35.322Z,18.23
2023-03-02T09:41:23.936Z,17.63
2023-03-02T09:44:01.698Z,16.67
2023-03-02T09:46:35.641Z,15.60
2023-03-02T09:49:20.544Z,15.95
2023-03-02T09:51:59.715Z,16.67
2023-03-02T09:54:27.683Z,16.48
2023-03-02T09:56:57.894Z,15.75
2023-03-02T09:59:30.392Z,16.55
2023-03-02T10:02:06.266Z,15.70
2023-03-02T10:04:39.552Z,14.63
2023-03-02T10:07:15.191Z,15.40
2023-03-02T10:09:44.199Z,15.60
2023-03-02T10:12:36.915Z,13.60
2023-03-02T10:15:11.673Z,13.02
2023-03-02T10:17:54.311Z,14.07
2023-03-02T10:20:34.173Z,14.98
2023-03-02T10:23:11.684Z,13.15
2023-03-02T10:25:48.696Z,13.73
2023-03-02T10:28:20.595Z,16.13
2023-03-02T10:30:55.274Z,14.18
2023-03-02T10:33:24.904Z,13.10
2023-03-02T10:35:54.472Z,13.13
2023-03-02T10:38:24.436Z,13.95
2023-03-02T10:40:59.974Z,13.93
2023-03-02T10:43:32.750Z,13.48
2023-03-02T10:46:02.550Z,13.07
2023-03-02T10:48:31.936Z,13.25
2023-03-02T10:51:00.663Z,13.55
2023-03-02T10:53:29.126Z,13.30
2023-03-02T10:55:57.018Z,13.00
2023-03-02T10:58:30.381Z,12.27
2023-03-02T11:01:00.273Z,12.18
2023-03-02T11:03:28.581Z,13.98
2023-03-02T11:06:00.411Z,13.57
2023-03-02T11:08:29.357Z,13.80
2023-03-02T11:11:01.224Z,13.43
2023-03-02T11:13:32.298Z,13.93
2023-03-02T11:16:01.730Z,11.73
2023-03-02T11:18:34.089Z,12.32
2023-03-02T11:21:06.832Z,12.15
2023-03-02T11:23:42.165Z,12.10
2023-03-02T11:26:19.356Z,11.88
2023-03-02T11:28:52.653Z,12.80
2023-03-02T11:31:29.687Z,13.75
2023-03-02T11:34:17.896Z,13.38
2023-03-02T11:36:58.623Z,11.88
2023-03-02T11:39:33.184Z,12.48
2023-03-02T11:42:01.045Z,11.13
2023-03-02T11:44:29.832Z,11.77
2023-03-02T11:47:01.990Z,12.27
2023-03-02T11:49:40.715Z,13.82
2023-03-02T11:52:19.908Z,12.57
2023-03-02T11:54:53.951Z,11.23
2023-03-02T11:57:26.685Z,10.02
2023-03-02T11:59:56.098Z,10.43
2023-03-02T12:02:24.177Z,10.02
2023-03-02T12:05:03.064Z,11.57
2023-03-02T12:07:32.474Z,12.52
2023-03-02T12:10:03.220Z,11.88
2023-03-02T12:12:36.226Z,12.73
2023-03-02T12:15:04.515Z,11.33
2023-03-02T12:17:35.148Z,11.90
2023-03-02T12:20:24.455Z,12.10
2023-03-02T12:22:54.389Z,12.50
2023-03-02T12:25:40.453Z,13.13
2023-03-02T12:28:27.066Z,13.30
2023-03-02T12:31:03.754Z,15.32
2023-03-02T12:33:31.670Z,15.80
2023-03-02T12:36:06.598Z,15.98
2023-03-02T12:38:39.569Z,16.13
2023-03-02T12:41:27.527Z,15.07
2023-03-02T12:44:28.745Z,16.60
2023-03-02T12:46:57.485Z,14.82
2023-03-02T12:49:45.638Z,15.82
2023-03-02T12:52:24.160Z,14.60
2023-03-02T12:55:02.704Z,14.90
2023-03-02T12:57:31.066Z,15.27
2023-03-02T13:00:01.061Z,14.70
2023-03-02T13:02:30.699Z,14.00
2023-03-02T13:05:00.598Z,13.90
2023-03-02T13:07:35.487Z,14.05
2023-03-02T13:10:10.731Z,13.75
2023-03-02T13:12:45.150Z,13.73
2023-03-02T13:15:17.048Z,14.30
2023-03-02T13:17:45.455Z,14.80
2023-03-02T13:20:15.861Z,14.65
2023-03-02T13:22:43.840Z,13.45
2023-03-02T13:25:23.682Z,13.95
2023-03-02T13:27:56.005Z,14.43
2023-03-02T13:30:27.243Z,14.10
2023-03-02T13:33:01.022Z,15.40
2023-03-02T13:35:31.442Z,15.23
2023-03-02T13:38:03.090Z,15.27
2023-03-02T13:40:44.827Z,13.52
2023-03-02T13:43:32.274Z,14.48
2023-03-02T13:46:01.612Z,13.80
2023-03-02T13:48:30.585Z,14.18
2023-03-02T13:51:00.454Z,15.68
2023-03-02T13:53:31.053Z,14.70
2023-03-02T13:56:01.274Z,14.85
2023-03-02T13:58:30.372Z,14.43
2023-03-02T14:00:58.408Z,14.13
2023-03-02T14:03:28.259Z,12.98
2023-03-02T14:05:57.699Z,13.40
2023-03-02T14:08:25.568Z,13.65
2023-03-02T14:10:57.236Z,12.93
2023-03-02T14:13:31.499Z,13.30
2023-03-02T14:15:59.415Z,14.25
2023-03-02T14:18:37.125Z,15.25
2023-03-02T14:21:05.778Z,15.52
2023-03-02T14:23:33.784Z,15.73
2023-03-02T14:26:01.703Z,14.93
2023-03-02T14:28:35.292Z,15.77
2023-03-02T14:31:03.168Z,17.50
2023-03-02T14:33:31.020Z,18.05
2023-03-02T14:35:59.725Z,18.10
2023-03-02T14:38:28.822Z,19.00
2023-03-02T14:40:56.671Z,18.27
2023-03-02T14:43:25.282Z,18.63
2023-03-02T14:45:54.580Z,18.45
2023-03-02T14:48:22.502Z,18.02
2023-03-02T14:50:52.449Z,16.17
2023-03-02T14:53:27.369Z,17.90
2023-03-02T14:55:55.197Z,17.30
2023-03-02T14:58:30.649Z,18.70
2023-03-02T15:00:59.790Z,18.25
2023-03-02T15:03:28.175Z,19.80
2023-03-02T15:06:01.420Z,16.90
2023-03-02T15:10:58.100Z,18.83
2023-03-02T15:13:25.841Z,16.50
2023-03-02T15:15:53.704Z,18.33
2023-03-02T15:18:22.859Z,17.88
2023-03-02T15:20:50.565Z,19.38
2023-03-02T15:23:18.280Z,18.17
2023-03-02T15:25:46.042Z,19.55
2023-03-02T15:28:13.849Z,19.73
2023-03-02T15:30:41.745Z,20.40
2023-03-02T15:33:09.544Z,19.85
2023-03-02T15:35:39.660Z,18.65
2023-03-02T15:38:07.858Z,18.95
2023-03-02T15:40:37.089Z,18.92
2023-03-02T15:43:05.007Z,18.58
2023-03-02T15:45:32.789Z,18.38
2023-03-02T15:48:00.629Z,19.20
2023-03-02T15:50:28.399Z,21.08
2023-03-02T15:52:58.405Z,18.70
2023-03-02T15:55:27.112Z,17.90
2023-03-02T15:57:58.016Z,18.35
2023-03-02T16:00:26.173Z,19.50
2023-03-02T16:02:54.025Z,19.98
2023-03-02T16:05:21.868Z,19.98
2023-03-02T16:07:49.638Z,20.20
2023-03-02T16:10:20.740Z,19.60
2023-03-02T16:12:48.477Z,19.48
2023-03-02T16:15:16.241Z,20.15
2023-03-02T16:17:44.116Z,19.88
2023-03-02T16:20:13.139Z,19.58
2023-03-02T16:22:40.859Z,19.95
2023-03-02T16:25:09.250Z,20.08
2023-03-02T16:27:38.447Z,20.58
2023-03-02T16:30:07.112Z,19.77
2023-03-02T16:32:34.944Z,20.42
2023-03-02T16:35:02.653Z,21.38
2023-03-02T16:37:30.470Z,18.85
2023-03-02T16:39:58.262Z,19.05
2023-03-02T16:42:26.314Z,21.23
2023-03-02T16:44:55.459Z,19.10
2023-03-02T16:47:23.230Z,20.77
2023-03-02T16:49:51.066Z,20.38
2023-03-02T16:52:18.829Z,20.35
2023-03-02T16:54:46.646Z,18.88
2023-03-02T16:57:14.387Z,20.42
2023-03-02T16:59:42.347Z,21.05
2023-03-02T17:02:12.611Z,20.20
2023-03-02T17:04:40.609Z,19.88
2023-03-02T17:07:09.404Z,19.15
2023-03-02T17:09:41.370Z,19.50
2023-03-02T17:12:09.388Z,20.30
2023-03-02T17:14:37.155Z,20.58
2023-03-02T17:17:04.999Z,19.52
2023-03-02T17:19:34.228Z,19.65
2023-03-02T17:22:03.212Z,19.75
2023-03-02T17:24:31.522Z,19.73
2023-03-02T17:26:59.250Z,18.75
2023-03-02T17:29:27.076Z,19.95
2023-03-02T17:31:54.984Z,18.10
2023-03-02T17:34:23.007Z,19.38
2023-03-02T17:36:52.111Z,18.08
2023-03-02T17:39:19.870Z,18.25
2023-03-02T17:41:50.145Z,18.40
2023-03-02T17:44:17.891Z,18.27
2023-03-02T17:46:46.559Z,17.67
2023-03-02T17:49:14.660Z,17.40
2023-03-02T17:51:42.421Z,16.63
2023-03-02T17:54:12.776Z,17.15
2023-03-02T17:56:40.580Z,17.55
2023-03-02T17:59:08.380Z,16.55
2023-03-02T18:01:36.453Z,16.60
2023-03-02T18:04:04.911Z,16.48
2023-03-02T18:06:32.931Z,14.88
2023-03-02T18:09:00.785Z,16.05
2023-03-02T18:11:30.103Z,16.33
2023-03-02T18:13:59.148Z,15.32
2023-03-02T18:16:29.209Z,16.40
2023-03-02T18:18:57.580Z,16.15
2023-03-02T18:21:25.377Z,15.75
2023-03-02T18:23:53.560Z,16.38
2023-03-02T18:26:22.006Z,15.55
2023-03-02T18:28:51.447Z,15.43
2023-03-02T18:31:20.201Z,15.68
2023-03-02T18:33:48.626Z,17.13
2023-03-02T18:36:16.811Z,15.73
2023-03-02T18:38:44.659Z,17.23
2023-03-02T18:41:13.834Z,17.33
2023-03-02T18:43:43.211Z,16.35
2023-03-02T18:46:19.206Z,17.33
2023-03-02T18:48:47.460Z,17.02
2023-03-02T18:51:17.110Z,17.00
2023-03-02T18:53:46.082Z,17.42
2023-03-02T18:56:14.189Z,16.20
2023-03-02T18:58:42.413Z,17.02
2023-03-02T19:01:10.443Z,18.05
2023-03-02T19:03:41.928Z,18.05
2023-03-02T19:06:10.071Z,17.50
2023-03-02T19:08:38.079Z,16.63
2023-03-02T19:11:06.598Z,18.58
2023-03-02T19:13:34.415Z,16.90
2023-03-02T19:16:02.957Z,17.73
2023-03-02T19:18:34.367Z,16.42
2023-03-02T19:21:04.943Z,17.10
2023-03-02T19:23:33.184Z,18.25
2023-03-02T19:26:01.030Z,18.05
2023-03-02T19:28:28.826Z,17.35
2023-03-02T19:30:56.579Z,15.50
2023-03-02T19:33:24.904Z,17.23
2023-03-02T19:35:52.784Z,18.38
2023-03-02T19:38:22.730Z,16.92
2023-03-02T19:40:52.118Z,18.70
2023-03-02T19:43:20.372Z,18.92
2023-03-02T19:45:48.240Z,17.63
2023-03-02T19:48:16.200Z,17.83
2023-03-02T19:50:45.386Z,16.75
2023-03-02T19:53:13.562Z,17.88
2023-03-02T19:55:43.571Z,17.27
2023-03-02T19:58:17.270Z,17.33
2023-03-02T20:03:14.078Z,18.52
2023-03-02T20:05:41.802Z,17.60
2023-03-02T20:08:09.849Z,18.05
2023-03-02T20:10:40.657Z,17.42
2023-03-02T20:13:10.669Z,16.48
2023-03-02T20:15:40.412Z,16.73
2023-03-02T20:18:10.918Z,17.20
2023-03-02T20:20:38.721Z,17.92
2023-03-02T20:23:06.872Z,18.63
2023-03-02T20:25:36.461Z,17.40
2023-03-02T20:28:05.808Z,17.55
2023-03-02T20:30:38.603Z,17.42
2023-03-02T20:33:08.400Z,13.25
2023-03-02T20:35:40.898Z,18.17
2023-03-02T20:38:11.206Z,19.10
2023-03-02T20:40:39.047Z,18.33
2023-03-02T20:43:07.247Z,18.77
2023-03-02T20:45:40.869Z,18.77
2023-03-02T20:48:09.298Z,20.55
2023-03-02T20:50:40.476Z,19.17
2023-03-02T20:53:11.567Z,18.25
2023-03-02T20:55:39.781Z,19.15
2023-03-02T20:58:07.637Z,20.80
2023-03-02T21:00:38.157Z,21.45
2023-03-02T21:03:07.233Z,20.83
2023-03-02T21:05:37.150Z,21.25
2023-03-02T21:08:05.851Z,20.52
2023-03-02T21:10:37.982Z,21.95
2023-03-02T21:13:07.629Z,22.58
2023-03-02T21:15:37.409Z,21.40
2023-03-02T21:18:05.649Z,22.80
2023-03-02T21:20:38.154Z,21.15
2023-03-02T21:23:05.967Z,19.92
2023-03-02T21:25:34.496Z,21.98
2023-03-02T21:28:02.298Z,21.02
2023-03-02T21:30:34.066Z,20.58
2023-03-02T21:33:03.704Z,20.17
2023-03-02T21:35:34.296Z,20.10
2023-03-02T21:38:05.044Z,19.20
2023-03-02T21:40:37.582Z,18.73
2023-03-02T21:43:06.812Z,19.83
2023-03-02T21:45:35.913Z,18.92
2023-03-02T21:48:05.546Z,18.55
2023-03-02T21:50:36.681Z,18.35
2023-03-02T21:53:05.257Z,18.55
2023-03-02T21:55:33.620Z,18.27
2023-03-02T21:58:01.944Z,18.55
2023-03-02T22:00:32.660Z,18.73
2023-03-02T22:03:01.170Z,18.25
2023-03-02T22:05:30.525Z,17.55
2023-03-02T22:07:58.612Z,18.48
2023-03-02T22:10:31.859Z,18.40
2023-03-02T22:13:15.632Z,18.52
2023-03-02T22:15:43.401Z,17.60
2023-03-02T22:18:12.980Z,18.05
2023-03-02T22:20:45.092Z,18.58
2023-03-02T22:23:14.523Z,18.13
2023-03-02T22:25:44.289Z,18.30
2023-03-02T22:28:17.967Z,18.75
2023-03-02T22:30:46.381Z,18.20
2023-03-02T22:33:19.883Z,18.10
2023-03-02T22:35:49.680Z,17.15
2023-03-02T22:38:25.281Z,17.48
2023-03-02T22:40:53.865Z,15.95
2023-03-02T22:43:25.951Z,15.75
2023-03-02T22:45:54.266Z,15.38
2023-03-02T22:48:25.559Z,15.65
2023-03-02T22:50:55.042Z,13.68
2023-03-02T22:53:30.045Z,14.35
2023-03-02T22:56:00.437Z,13.60
2023-03-02T22:58:46.039Z,13.65
2023-03-02T23:01:23.071Z,13.38
2023-03-02T23:03:53.272Z,13.18
2023-03-02T23:06:30.778Z,12.85
2023-03-02T23:09:00.393Z,12.48
2023-03-02T23:11:29.635Z,12.57
2023-03-02T23:13:57.489Z,12.45
2023-03-02T23:16:27.110Z,11.73
2023-03-02T23:18:57.132Z,11.75
2023-03-02T23:21:28.972Z,12.25
2023-03-02T23:23:56.821Z,10.93
2023-03-02T23:26:24.624Z,9.88
2023-03-02T23:28:52.564Z,10.15
2023-03-02T23:31:21.234Z,9.95
2023-03-02T23:33:49.412Z,10.25
2023-03-02T23:36:17.701Z,9.85
2023-03-02T23:38:46.826Z,9.18
2023-03-02T23:41:15.078Z,9.90
2023-03-02T23:43:42.869Z,8.55
2023-03-02T23:46:13.999Z,8.60
2023-03-02T23:48:41.960Z,8.30
2023-03-02T23:51:09.782Z,8.38
2023-03-02T23:53:37.624Z,8.60
2023-03-02T23:56:07.842Z,8.27
2023-03-02T23:58:35.585Z,8.65
